Terminal Aerodrome Forecast
Issued by NWS

Home | Current Version | Previous Version | Text Only | Print | Product List | Glossary On
Versions: 1 2 3 4 5 6 7 8 9 10 11 12 13
000
FTUS42 KTBW 271140
TAFPGD
TAF
KPGD 271140Z 2712/2812 07005KT 6SM BR FEW015 SCT250
     FM271400 09007KT P6SM FEW035 SCT250
     FM271700 07006KT P6SM SCT050 SCT250
     FM271900 04007KT P6SM BKN060
     FM272200 33007KT P6SM BKN060
     FM280100 VRB05KT P6SM SCT060
     FM280400 VRB03KT P6SM FEW040
     FM280800 VRB03KT 5SM BR FEW015=

USA.gov is the U.S. government's official web portal to all federal, state and local government web resources and services.